createdAt,value
2017-08-22T00:02:06.809Z,5.20
2017-08-22T00:04:34.105Z,8.80
2017-08-22T00:07:01.430Z,10.50
2017-08-22T00:09:28.730Z,4.77
2017-08-22T00:11:56.039Z,8.20
2017-08-22T00:14:23.346Z,6.67
2017-08-22T00:16:50.694Z,5.67
2017-08-22T00:19:17.999Z,7.60
2017-08-22T00:21:45.343Z,6.10
2017-08-22T00:24:12.669Z,8.37
2017-08-22T00:26:39.997Z,10.80
2017-08-22T00:29:07.495Z,8.73
2017-08-22T00:31:34.810Z,11.40
2017-08-22T00:34:02.471Z,9.07
2017-08-22T00:36:29.803Z,8.47
2017-08-22T00:38:57.149Z,5.17
2017-08-22T00:41:24.897Z,8.23
2017-08-22T00:43:52.210Z,9.07
2017-08-22T00:46:19.500Z,5.07
2017-08-22T00:48:46.824Z,6.47
2017-08-22T00:51:14.150Z,8.60
2017-08-22T00:53:41.475Z,11.40
2017-08-22T00:56:08.765Z,7.17
2017-08-22T00:58:36.116Z,8.40
2017-08-22T01:01:03.431Z,10.70
2017-08-22T01:03:31.165Z,9.60
2017-08-22T01:05:58.506Z,11.17
2017-08-22T01:08:25.957Z,7.20
2017-08-22T01:10:53.282Z,6.50
2017-08-22T01:13:20.614Z,10.77
2017-08-22T01:15:47.922Z,10.80
2017-08-22T01:18:15.310Z,11.60
2017-08-22T01:20:42.625Z,12.20
2017-08-22T01:23:09.935Z,12.70
2017-08-22T01:25:37.254Z,10.30
2017-08-22T01:28:04.650Z,16.57
2017-08-22T01:30:31.986Z,10.30
2017-08-22T01:32:59.274Z,8.80
2017-08-22T01:35:26.911Z,11.90
2017-08-22T01:37:54.537Z,9.60
2017-08-22T01:40:21.875Z,10.53
2017-08-22T01:42:49.169Z,8.83
2017-08-22T01:45:16.597Z,11.47
2017-08-22T01:47:43.942Z,11.50
2017-08-22T01:50:11.290Z,18.93
2017-08-22T01:52:38.594Z,15.70
2017-08-22T01:55:05.935Z,9.60
2017-08-22T01:57:33.243Z,12.90
2017-08-22T02:00:00.534Z,10.60
2017-08-22T02:02:27.883Z,9.23
2017-08-22T02:04:55.217Z,10.20
2017-08-22T02:07:22.567Z,10.77
2017-08-22T02:09:49.892Z,7.97
2017-08-22T02:12:17.545Z,14.07
2017-08-22T02:14:44.855Z,15.10
2017-08-22T02:17:13.178Z,10.17
2017-08-22T02:19:40.769Z,10.20
2017-08-22T02:22:08.095Z,7.60
2017-08-22T02:24:35.393Z,10.27
2017-08-22T02:27:03.135Z,10.53
2017-08-22T02:29:30.765Z,8.70
2017-08-22T02:31:58.073Z,6.53
2017-08-22T02:34:25.534Z,7.93
2017-08-22T02:36:52.886Z,9.47
2017-08-22T02:39:20.173Z,8.40
2017-08-22T02:41:47.483Z,10.17
2017-08-22T02:44:14.830Z,8.97
2017-08-22T02:46:42.150Z,12.93
2017-08-22T02:49:09.513Z,6.80
2017-08-22T02:51:36.833Z,13.23
2017-08-22T02:54:04.150Z,7.90
2017-08-22T02:56:31.478Z,12.67
2017-08-22T02:58:58.785Z,9.20
2017-08-22T03:01:26.146Z,7.83
2017-08-22T03:03:53.490Z,11.10
2017-08-22T03:06:20.786Z,12.23
2017-08-22T03:08:48.119Z,10.43
2017-08-22T03:11:15.414Z,8.60
2017-08-22T03:13:42.913Z,11.03
2017-08-22T03:16:10.239Z,9.80
2017-08-22T03:18:37.615Z,8.90
2017-08-22T03:21:04.939Z,8.70
2017-08-22T03:23:32.487Z,10.00
2017-08-22T03:25:59.824Z,10.80
2017-08-22T03:28:27.466Z,11.10
2017-08-22T03:30:54.832Z,11.30
2017-08-22T03:33:22.429Z,9.90
2017-08-22T03:35:49.809Z,13.40
2017-08-22T03:38:17.151Z,9.00
2017-08-22T03:40:44.485Z,9.20
2017-08-22T03:43:12.105Z,10.33
2017-08-22T03:45:39.699Z,10.67
2017-08-22T03:48:07.009Z,6.77
2017-08-22T03:50:34.331Z,14.10
2017-08-22T03:53:01.634Z,10.53
2017-08-22T03:55:28.953Z,9.97
2017-08-22T03:57:56.265Z,7.60
2017-08-22T04:00:23.595Z,12.90
2017-08-22T04:02:50.905Z,7.80
2017-08-22T04:05:18.212Z,10.87
2017-08-22T04:07:45.542Z,9.60
2017-08-22T04:10:12.930Z,9.00
2017-08-22T04:12:40.227Z,10.47
2017-08-22T04:15:07.578Z,11.27
2017-08-22T04:17:34.897Z,8.53
2017-08-22T04:20:02.243Z,8.37
2017-08-22T04:22:29.542Z,11.13
2017-08-22T04:24:56.842Z,10.10
2017-08-22T04:27:24.199Z,10.23
2017-08-22T04:29:51.497Z,12.93
2017-08-22T04:32:18.867Z,7.80
2017-08-22T04:34:46.281Z,7.33
2017-08-22T04:37:13.629Z,8.90
2017-08-22T04:39:40.935Z,7.17
2017-08-22T04:42:08.251Z,9.90
2017-08-22T04:44:35.549Z,11.57
2017-08-22T04:47:03.027Z,12.47
2017-08-22T04:49:31.262Z,11.33
2017-08-22T04:51:58.565Z,11.13
2017-08-22T04:54:25.861Z,9.23
2017-08-22T04:56:53.187Z,7.50
2017-08-22T04:59:20.486Z,13.70
2017-08-22T05:01:47.801Z,8.23
2017-08-22T05:04:15.103Z,11.50
2017-08-22T05:06:42.486Z,11.23
2017-08-22T05:09:09.784Z,9.70
2017-08-22T05:11:37.136Z,12.27
2017-08-22T05:14:04.490Z,10.27
2017-08-22T05:16:31.810Z,13.00
2017-08-22T05:18:59.170Z,12.70
2017-08-22T05:21:26.488Z,8.00
2017-08-22T05:23:53.817Z,14.20
2017-08-22T05:26:21.117Z,9.80
2017-08-22T05:28:48.421Z,13.40
2017-08-22T05:31:15.755Z,12.40
2017-08-22T05:33:43.118Z,11.10
2017-08-22T05:36:10.446Z,12.50
2017-08-22T05:38:37.802Z,14.13
2017-08-22T05:41:05.127Z,16.80
2017-08-22T05:43:32.481Z,19.37
2017-08-22T05:45:59.793Z,22.40
2017-08-22T05:48:27.126Z,9.30
2017-08-22T05:50:54.433Z,14.13
2017-08-22T05:53:21.740Z,17.73
2017-08-22T05:55:49.093Z,17.77
2017-08-22T05:58:16.423Z,21.47
2017-08-22T06:00:44.075Z,26.13
2017-08-22T06:03:11.749Z,24.30
2017-08-22T06:05:39.068Z,17.77
2017-08-22T06:08:06.391Z,18.63
2017-08-22T06:10:33.737Z,21.73
2017-08-22T06:13:01.064Z,18.87
2017-08-22T06:15:28.434Z,14.57
2017-08-22T06:17:55.741Z,14.00
2017-08-22T06:20:23.057Z,13.63
2017-08-22T06:22:50.352Z,8.47
2017-08-22T06:25:18.000Z,15.73
2017-08-22T06:27:45.623Z,10.73
2017-08-22T06:30:12.941Z,18.37
2017-08-22T06:32:40.254Z,13.40
2017-08-22T06:35:07.570Z,10.57
2017-08-22T06:37:35.222Z,7.23
2017-08-22T06:40:02.549Z,9.87
2017-08-22T06:42:29.911Z,8.60
2017-08-22T06:44:57.197Z,14.67
2017-08-22T06:47:24.593Z,5.63
2017-08-22T06:49:51.907Z,6.67
2017-08-22T06:52:19.293Z,7.13
2017-08-22T06:54:46.613Z,10.13
2017-08-22T06:57:13.929Z,6.83
2017-08-22T06:59:41.278Z,6.03
2017-08-22T07:02:08.652Z,5.97
2017-08-22T07:04:35.941Z,8.33
2017-08-22T07:07:03.278Z,6.13
2017-08-22T07:09:30.589Z,6.83
2017-08-22T07:11:57.938Z,6.27
2017-08-22T07:14:25.230Z,8.67
2017-08-22T07:16:52.557Z,6.10
2017-08-22T07:19:19.927Z,6.43
2017-08-22T07:21:47.230Z,6.00
2017-08-22T07:24:14.546Z,5.00
2017-08-22T07:26:41.850Z,8.40
2017-08-22T07:29:09.168Z,3.50
2017-08-22T07:31:36.495Z,8.00
2017-08-22T07:34:03.958Z,10.20
2017-08-22T07:36:31.277Z,3.53
2017-08-22T07:38:58.773Z,8.00
2017-08-22T07:41:26.069Z,3.53
2017-08-22T07:43:53.422Z,4.70
2017-08-22T07:46:20.753Z,9.20
2017-08-22T07:48:48.079Z,9.60
2017-08-22T07:51:15.373Z,5.97
2017-08-22T07:53:42.692Z,5.43
2017-08-22T07:56:10.024Z,8.50
2017-08-22T07:58:37.379Z,4.13
2017-08-22T08:01:04.710Z,7.67
2017-08-22T08:03:32.043Z,4.90
2017-08-22T08:05:59.396Z,5.77
2017-08-22T08:08:26.739Z,5.53
2017-08-22T08:10:54.066Z,10.70
2017-08-22T08:13:21.417Z,6.40
2017-08-22T08:15:48.954Z,4.57
2017-08-22T08:18:16.285Z,5.47
2017-08-22T08:20:43.791Z,5.47
2017-08-22T08:23:11.085Z,3.70
2017-08-22T08:25:38.419Z,5.13
2017-08-22T08:28:05.758Z,5.97
2017-08-22T08:30:33.079Z,4.57
2017-08-22T08:33:00.374Z,5.33
2017-08-22T08:35:27.685Z,7.13
2017-08-22T08:37:55.028Z,3.43
2017-08-22T08:40:22.368Z,4.67
2017-08-22T08:42:49.703Z,6.77
2017-08-22T08:45:17.150Z,5.83
2017-08-22T08:47:44.482Z,5.23
2017-08-22T08:50:11.948Z,2.73
2017-08-22T08:52:39.299Z,9.20
2017-08-22T08:55:06.623Z,5.40
2017-08-22T08:57:33.966Z,6.10
2017-08-22T09:00:01.290Z,3.37
2017-08-22T09:02:28.656Z,7.20
2017-08-22T09:04:55.998Z,6.37
2017-08-22T09:07:23.342Z,9.80
2017-08-22T09:09:50.674Z,4.90
2017-08-22T09:12:18.020Z,6.50
2017-08-22T09:14:45.342Z,6.90
2017-08-22T09:17:12.699Z,4.70
2017-08-22T09:19:40.021Z,8.67
2017-08-22T09:22:07.331Z,7.23
2017-08-22T09:24:34.853Z,6.60
2017-08-22T09:27:02.206Z,6.70
2017-08-22T09:29:29.531Z,13.20
2017-08-22T09:31:57.065Z,7.73
2017-08-22T09:34:24.379Z,7.40
2017-08-22T09:36:51.691Z,5.83
2017-08-22T09:39:19.185Z,4.43
2017-08-22T09:41:46.560Z,5.43
2017-08-22T09:44:13.926Z,6.67
2017-08-22T09:46:41.244Z,7.50
2017-08-22T09:49:08.580Z,6.60
2017-08-22T09:51:35.932Z,4.70
2017-08-22T09:54:03.288Z,4.30
2017-08-22T09:56:30.585Z,6.53
2017-08-22T09:58:57.961Z,4.83
2017-08-22T10:01:25.387Z,11.00
2017-08-22T10:03:52.726Z,9.50
2017-08-22T10:06:21.004Z,4.40
2017-08-22T10:08:48.802Z,5.17
2017-08-22T10:11:16.208Z,8.03
2017-08-22T10:13:43.606Z,3.30
2017-08-22T10:16:10.968Z,3.80
2017-08-22T10:18:38.429Z,2.97
2017-08-22T10:21:05.769Z,4.17
2017-08-22T10:23:33.087Z,6.77
2017-08-22T10:26:00.539Z,4.60
2017-08-22T10:28:27.862Z,5.30
2017-08-22T10:30:55.157Z,5.17
2017-08-22T10:33:22.578Z,4.77
2017-08-22T10:35:49.857Z,4.73
2017-08-22T10:38:17.430Z,5.17
2017-08-22T10:40:44.906Z,5.10
2017-08-22T10:43:12.686Z,5.33
2017-08-22T10:45:40.010Z,2.83
2017-08-22T10:48:07.366Z,6.27
2017-08-22T10:50:34.699Z,2.83
2017-08-22T10:53:02.143Z,3.93
2017-08-22T10:55:29.450Z,4.77
2017-08-22T10:57:57.051Z,5.83
2017-08-22T11:00:24.491Z,3.23
2017-08-22T11:02:51.880Z,5.10
2017-08-22T11:05:19.575Z,4.03
2017-08-22T11:07:46.883Z,6.60
2017-08-22T11:10:14.203Z,4.50
2017-08-22T11:12:41.621Z,3.57
2017-08-22T11:15:08.987Z,3.87
2017-08-22T11:17:36.324Z,3.43
2017-08-22T11:20:03.659Z,3.27
2017-08-22T11:22:31.027Z,4.90
2017-08-22T11:24:58.343Z,4.60
2017-08-22T11:27:25.674Z,3.97
2017-08-22T11:29:53.002Z,5.23
2017-08-22T11:32:20.494Z,4.20
2017-08-22T11:34:47.789Z,6.80
2017-08-22T11:37:15.097Z,5.50
2017-08-22T11:39:42.662Z,2.47
2017-08-22T11:42:09.976Z,3.00
2017-08-22T11:44:37.356Z,2.90
2017-08-22T11:47:05.633Z,5.07
2017-08-22T11:49:32.988Z,2.60
2017-08-22T11:52:00.344Z,7.20
2017-08-22T11:54:27.646Z,2.80
2017-08-22T11:56:54.988Z,5.30
2017-08-22T11:59:22.343Z,2.30
2017-08-22T12:01:49.734Z,2.63
2017-08-22T12:04:17.047Z,2.00
2017-08-22T12:06:44.362Z,5.40
2017-08-22T12:09:11.701Z,4.73
2017-08-22T12:11:39.045Z,2.17
2017-08-22T12:14:06.388Z,4.10
2017-08-22T12:16:33.701Z,4.60
2017-08-22T12:19:01.018Z,6.33
2017-08-22T12:21:28.308Z,4.23
2017-08-22T12:23:55.671Z,3.83
2017-08-22T12:26:23.094Z,10.30
2017-08-22T12:28:50.467Z,4.63
2017-08-22T12:31:17.782Z,11.27
2017-08-22T12:33:45.110Z,4.27
2017-08-22T12:36:13.606Z,8.63
2017-08-22T12:38:40.926Z,4.77
2017-08-22T12:41:08.225Z,7.30
2017-08-22T12:43:35.545Z,4.40
2017-08-22T12:46:03.070Z,4.33
2017-08-22T12:48:30.425Z,3.47
2017-08-22T12:50:57.740Z,10.37
2017-08-22T12:53:25.124Z,6.53
2017-08-22T12:55:52.428Z,4.00
2017-08-22T12:58:19.780Z,3.30
2017-08-22T13:00:47.103Z,3.90
2017-08-22T13:03:15.370Z,2.57
2017-08-22T13:05:42.923Z,4.80
2017-08-22T13:08:10.284Z,5.10
2017-08-22T13:10:37.583Z,4.00
2017-08-22T13:13:04.901Z,4.50
2017-08-22T13:15:32.207Z,3.03
2017-08-22T13:17:59.524Z,5.13
2017-08-22T13:20:26.838Z,3.13
2017-08-22T13:22:54.203Z,2.93
2017-08-22T13:25:21.586Z,7.63
2017-08-22T13:27:48.897Z,4.30
2017-08-22T13:30:16.241Z,4.80
2017-08-22T13:32:43.547Z,3.90
2017-08-22T13:35:10.894Z,3.27
2017-08-22T13:37:38.232Z,4.93
2017-08-22T13:40:05.607Z,8.63
2017-08-22T13:42:32.941Z,2.97
2017-08-22T13:45:00.261Z,6.50
2017-08-22T13:47:27.605Z,3.57
2017-08-22T13:49:54.953Z,2.87
2017-08-22T13:52:22.270Z,2.20
2017-08-22T13:54:49.691Z,4.10
2017-08-22T13:57:17.063Z,5.70
2017-08-22T13:59:47.957Z,4.30
2017-08-22T14:02:15.396Z,3.37
2017-08-22T14:04:43.073Z,2.80
2017-08-22T14:07:10.433Z,3.90
2017-08-22T14:09:37.767Z,2.50
2017-08-22T14:12:05.120Z,6.60
2017-08-22T14:14:32.454Z,4.43
2017-08-22T14:16:59.794Z,4.13
2017-08-22T14:19:27.329Z,3.83
2017-08-22T14:21:54.732Z,3.63
2017-08-22T14:24:22.012Z,3.00
2017-08-22T14:26:49.382Z,7.30
2017-08-22T14:29:16.710Z,3.57
2017-08-22T14:31:44.036Z,4.13
2017-08-22T14:34:11.387Z,3.67
2017-08-22T14:36:41.260Z,3.93
2017-08-22T14:39:09.049Z,3.03
2017-08-22T14:41:36.379Z,4.67
2017-08-22T14:44:05.305Z,3.93
2017-08-22T14:46:33.497Z,4.90
2017-08-22T14:49:02.159Z,3.53
2017-08-22T14:51:33.667Z,6.00
2017-08-22T14:54:01.020Z,2.60
2017-08-22T14:56:28.585Z,3.13
2017-08-22T14:58:55.888Z,6.23
2017-08-22T15:01:23.190Z,4.30
2017-08-22T15:03:50.539Z,2.90
2017-08-22T15:06:17.871Z,3.90
2017-08-22T15:08:45.227Z,4.80
2017-08-22T15:11:12.859Z,3.20
2017-08-22T15:13:40.173Z,6.10
2017-08-22T15:16:07.479Z,2.70
2017-08-22T15:18:34.824Z,4.00
2017-08-22T15:21:02.145Z,3.47
2017-08-22T15:23:29.483Z,3.17
2017-08-22T15:25:56.791Z,5.90
2017-08-22T15:28:24.087Z,3.43
2017-08-22T15:30:51.570Z,3.77
2017-08-22T15:33:20.099Z,7.20
2017-08-22T15:35:47.709Z,3.40
2017-08-22T15:38:15.065Z,5.90
2017-08-22T15:40:42.458Z,5.17
2017-08-22T15:43:09.787Z,3.33
2017-08-22T15:45:37.415Z,6.23
2017-08-22T15:48:04.745Z,6.30
2017-08-22T15:50:32.297Z,3.13
2017-08-22T15:52:59.592Z,3.17
2017-08-22T15:55:26.905Z,3.53
2017-08-22T15:57:54.206Z,3.20
2017-08-22T16:00:21.850Z,7.27
2017-08-22T16:02:49.475Z,3.37
2017-08-22T16:05:16.871Z,4.37
2017-08-22T16:07:44.168Z,5.60
2017-08-22T16:10:11.517Z,3.10
2017-08-22T16:12:38.830Z,5.60
2017-08-22T16:15:06.137Z,4.70
2017-08-22T16:17:33.504Z,3.40
2017-08-22T16:20:00.832Z,4.73
2017-08-22T16:22:28.150Z,4.43
2017-08-22T16:24:55.487Z,2.50
2017-08-22T16:27:22.826Z,2.97
2017-08-22T16:29:50.152Z,3.50
2017-08-22T16:32:17.800Z,5.63
2017-08-22T16:34:45.455Z,5.23
2017-08-22T16:37:13.289Z,3.27
2017-08-22T16:39:40.914Z,4.07
2017-08-22T16:42:08.235Z,4.50
2017-08-22T16:44:35.525Z,4.73
2017-08-22T16:47:03.174Z,5.70
2017-08-22T16:49:30.601Z,5.17
2017-08-22T16:51:57.923Z,5.77
2017-08-22T16:54:25.340Z,4.17
2017-08-22T16:56:52.694Z,5.47
2017-08-22T16:59:20.013Z,8.07
2017-08-22T17:01:47.359Z,4.77
2017-08-22T17:04:14.671Z,3.93
2017-08-22T17:06:42.014Z,7.43
2017-08-22T17:09:09.334Z,5.43
2017-08-22T17:11:36.731Z,6.87
2017-08-22T17:14:04.034Z,4.27
2017-08-22T17:16:31.361Z,6.00
2017-08-22T17:18:58.739Z,5.67
2017-08-22T17:21:26.241Z,7.30
2017-08-22T17:23:53.547Z,5.20
2017-08-22T17:26:20.872Z,5.90
2017-08-22T17:28:48.182Z,4.60
2017-08-22T17:31:15.497Z,5.47
2017-08-22T17:33:43.249Z,7.13
2017-08-22T17:36:10.569Z,3.60
2017-08-22T17:38:37.866Z,6.33
2017-08-22T17:41:05.173Z,5.93
2017-08-22T17:43:32.490Z,6.70
2017-08-22T17:45:59.782Z,4.23
2017-08-22T17:48:27.102Z,3.47
2017-08-22T17:50:54.470Z,7.87
2017-08-22T17:53:21.789Z,6.53
2017-08-22T17:55:49.126Z,6.40
2017-08-22T17:58:16.438Z,2.70
2017-08-22T18:00:43.789Z,7.20
2017-08-22T18:03:11.110Z,6.90
2017-08-22T18:05:38.489Z,5.80
2017-08-22T18:08:05.846Z,4.13
2017-08-22T18:10:33.466Z,6.67
2017-08-22T18:13:00.786Z,4.23
2017-08-22T18:15:28.087Z,7.57
2017-08-22T18:17:55.410Z,5.50
2017-08-22T18:20:22.705Z,4.77
2017-08-22T18:22:50.043Z,9.70
2017-08-22T18:25:17.349Z,6.27
2017-08-22T18:27:44.678Z,5.87
2017-08-22T18:30:12.010Z,4.40
2017-08-22T18:32:39.353Z,3.10
2017-08-22T18:35:06.682Z,4.83
2017-08-22T18:37:33.993Z,5.67
2017-08-22T18:40:01.300Z,6.27
2017-08-22T18:42:28.613Z,6.47
2017-08-22T18:44:55.974Z,4.37
2017-08-22T18:47:23.602Z,4.67
2017-08-22T18:49:50.950Z,5.13
2017-08-22T18:52:18.353Z,8.67
2017-08-22T18:54:45.727Z,7.90
2017-08-22T18:57:13.026Z,5.77
2017-08-22T18:59:40.367Z,8.53
2017-08-22T19:02:07.673Z,4.10
2017-08-22T19:04:35.016Z,8.60
2017-08-22T19:07:02.335Z,5.17
2017-08-22T19:09:29.686Z,6.87
2017-08-22T19:11:57.011Z,6.50
2017-08-22T19:14:24.334Z,4.77
2017-08-22T19:16:51.621Z,7.50
2017-08-22T19:19:18.950Z,14.10
2017-08-22T19:21:46.562Z,7.53
2017-08-22T19:24:14.059Z,9.30
2017-08-22T19:26:41.358Z,7.87
2017-08-22T19:29:08.677Z,10.33
2017-08-22T19:31:36.159Z,7.87
2017-08-22T19:34:03.499Z,7.97
2017-08-22T19:36:30.835Z,7.40
2017-08-22T19:38:58.150Z,7.63
2017-08-22T19:41:25.622Z,9.77
2017-08-22T19:43:52.970Z,8.27
2017-08-22T19:46:20.517Z,8.47
2017-08-22T19:48:48.091Z,14.83
2017-08-22T19:51:15.401Z,11.70
2017-08-22T19:53:42.726Z,12.80
2017-08-22T19:56:10.046Z,10.00
2017-08-22T19:58:37.358Z,12.10
2017-08-22T20:01:04.675Z,9.43
2017-08-22T20:03:32.906Z,11.10
2017-08-22T20:06:00.321Z,13.10
2017-08-22T20:08:27.642Z,11.17
2017-08-22T20:10:54.988Z,11.50
2017-08-22T20:13:22.629Z,13.00
2017-08-22T20:15:50.002Z,17.90
2017-08-22T20:18:17.297Z,18.00
2017-08-22T20:20:44.621Z,13.63
2017-08-22T20:23:11.941Z,14.40
2017-08-22T20:25:39.263Z,12.70
2017-08-22T20:28:06.570Z,14.43
2017-08-22T20:30:33.924Z,12.30
2017-08-22T20:33:01.235Z,14.23
2017-08-22T20:35:28.558Z,11.77
2017-08-22T20:37:55.914Z,12.20
2017-08-22T20:40:23.250Z,13.97
2017-08-22T20:42:50.611Z,17.77
2017-08-22T20:45:18.136Z,16.73
2017-08-22T20:47:45.483Z,14.90
2017-08-22T20:50:12.824Z,14.07
2017-08-22T20:52:40.658Z,16.20
2017-08-22T20:55:07.949Z,15.30
2017-08-22T20:57:35.273Z,17.23
2017-08-22T21:00:02.587Z,17.90
2017-08-22T21:02:29.943Z,15.53
2017-08-22T21:04:57.254Z,17.50
2017-08-22T21:07:24.594Z,16.03
2017-08-22T21:09:51.933Z,16.20
2017-08-22T21:12:19.244Z,14.30
2017-08-22T21:14:46.584Z,14.23
2017-08-22T21:17:13.919Z,16.67
2017-08-22T21:19:41.245Z,13.90
2017-08-22T21:22:08.556Z,13.73
2017-08-22T21:24:36.111Z,18.70
2017-08-22T21:27:03.444Z,13.40
2017-08-22T21:29:30.759Z,15.70
2017-08-22T21:31:58.053Z,17.47
2017-08-22T21:34:25.388Z,13.37
2017-08-22T21:36:52.701Z,16.37
2017-08-22T21:39:20.021Z,14.57
2017-08-22T21:41:47.320Z,14.20
2017-08-22T21:44:14.642Z,16.00
2017-08-22T21:46:41.966Z,16.33
2017-08-22T21:49:09.845Z,13.80
2017-08-22T21:51:37.161Z,13.47
2017-08-22T21:54:04.492Z,20.53
2017-08-22T21:56:31.826Z,16.17
2017-08-22T21:58:59.135Z,16.80
2017-08-22T22:01:26.464Z,15.50
2017-08-22T22:03:53.771Z,15.90
2017-08-22T22:06:21.109Z,15.13
2017-08-22T22:08:48.410Z,16.60
2017-08-22T22:11:15.723Z,12.67
2017-08-22T22:13:43.030Z,13.73
2017-08-22T22:16:10.889Z,12.70
2017-08-22T22:18:38.223Z,14.20
2017-08-22T22:21:05.578Z,15.97
2017-08-22T22:23:32.898Z,15.37
2017-08-22T22:26:00.223Z,13.17
2017-08-22T22:28:27.532Z,18.87
2017-08-22T22:30:55.819Z,17.93
2017-08-22T22:33:23.155Z,11.73
2017-08-22T22:35:50.643Z,14.90
2017-08-22T22:38:18.465Z,14.00
2017-08-22T22:40:45.791Z,11.13
2017-08-22T22:43:13.591Z,11.70
2017-08-22T22:45:41.543Z,11.07
2017-08-22T22:48:09.374Z,15.90
2017-08-22T22:50:36.711Z,14.07
2017-08-22T22:53:04.195Z,15.97
2017-08-22T22:55:32.101Z,15.40
2017-08-22T22:57:59.478Z,11.00
2017-08-22T23:00:27.334Z,14.60
2017-08-22T23:02:55.184Z,13.87
2017-08-22T23:05:22.509Z,12.30
2017-08-22T23:07:49.838Z,13.77
2017-08-22T23:10:17.142Z,12.03
2017-08-22T23:12:44.467Z,10.07
2017-08-22T23:15:11.785Z,9.63
2017-08-22T23:17:39.256Z,10.87
2017-08-22T23:20:07.063Z,15.80
2017-08-22T23:22:34.430Z,11.53
2017-08-22T23:25:02.270Z,11.53
2017-08-22T23:27:29.624Z,9.37
2017-08-22T23:29:57.477Z,11.63
2017-08-22T23:32:24.838Z,9.37
2017-08-22T23:34:52.143Z,12.40
2017-08-22T23:37:19.502Z,14.37
2017-08-22T23:39:46.841Z,15.73
2017-08-22T23:42:14.166Z,11.07
2017-08-22T23:44:41.487Z,13.47
2017-08-22T23:47:08.811Z,11.80
2017-08-22T23:49:36.126Z,13.50
2017-08-22T23:52:03.435Z,15.40
2017-08-22T23:54:30.782Z,12.40
2017-08-22T23:56:58.608Z,13.30
2017-08-22T23:59:25.950Z,14.27
